Time;durP1;ratioP1;P1;durP2;ratioP2;P2;SDS_P1;SDS_P2;PMS_P1;PMS_P2;Temp;Humidity;BMP_temperature;BMP_pressure;BME280_temperature;BME280_humidity;BME280_pressure;Samples;Min_cycle;Max_cycle;Signal;HPM_P1;HPM_P2
2023/05/13 00:00:55;;;;;;;4.90;4.40;;;;;;;11.36;100.00;154276.34;5055203;28;20459;-77
2023/05/13 00:03:22;;;;;;;5.80;5.20;;;;;;;11.36;100.00;154276.34;5055301;28;20520;-76
2023/05/13 00:05:48;;;;;;;5.60;5.00;;;;;;;11.33;100.00;154268.59;5053966;28;20552;-77
2023/05/13 00:08:16;;;;;;;5.30;4.10;;;;;;;11.28;100.00;154255.66;5060299;28;20454;-76
2023/05/13 00:10:43;;;;;;;5.10;4.60;;;;;;;11.28;100.00;154256.91;5045280;28;20457;-76
2023/05/13 00:13:12;;;;;;;4.40;4.00;;;;;;;11.26;100.00;154250.44;5047718;28;20465;-77
2023/05/13 00:15:39;;;;;;;4.83;4.20;;;;;;;11.26;100.00;154250.44;5054799;28;20456;-76
2023/05/13 00:18:05;;;;;;;5.40;4.53;;;;;;;11.25;100.00;154247.88;5047840;28;20906;-76
2023/05/13 00:20:32;;;;;;;5.80;4.30;;;;;;;11.26;100.00;154250.44;5048031;28;20457;-77
2023/05/13 00:22:59;;;;;;;4.00;3.60;;;;;;;11.23;100.00;154242.66;5045715;28;20838;-77
2023/05/13 00:25:27;;;;;;;4.40;4.00;;;;;;;11.18;100.00;154229.72;5048279;28;20513;-77
2023/05/13 00:27:53;;;;;;;5.00;4.50;;;;;;;11.20;100.00;154234.94;5060276;28;20467;-77
2023/05/13 00:30:20;;;;;;;4.60;4.20;;;;;;;11.18;100.00;154229.72;5039236;28;20450;-77
2023/05/13 00:32:47;;;;;;;4.70;4.10;;;;;;;11.21;100.00;154237.47;5045875;28;20835;-77
2023/05/13 00:35:13;;;;;;;4.00;3.53;;;;;;;11.21;100.00;154237.47;5057825;28;20454;-77
2023/05/13 00:37:40;;;;;;;6.97;4.43;;;;;;;11.23;100.00;154243.97;5042752;28;20457;-77
2023/05/13 00:40:17;;;;;;;4.97;4.47;;;;;;;11.18;100.00;154231.00;5055866;28;20561;-77
2023/05/13 00:42:45;;;;;;;5.27;4.33;;;;;;;11.19;100.00;154232.31;5058889;28;20951;-77
2023/05/13 00:45:11;;;;;;;4.43;4.03;;;;;;;11.19;100.00;154232.31;5044472;28;20481;-77
2023/05/13 00:47:38;;;;;;;4.80;4.07;;;;;;;11.15;100.00;154223.22;5045948;28;20962;-76
2023/05/13 00:50:06;;;;;;;4.53;4.13;;;;;;;11.15;100.00;154221.94;5056554;28;20880;-77
2023/05/13 00:52:33;;;;;;;5.20;4.70;;;;;;;11.11;100.00;154212.88;5027549;28;20446;-77
2023/05/13 00:55:00;;;;;;;4.47;4.00;;;;;;;11.13;100.00;154218.06;5043423;28;20480;-77
2023/05/13 00:57:26;;;;;;;5.00;4.33;;;;;;;11.13;100.00;154216.75;5062237;28;20458;-76
2023/05/13 00:59:54;;;;;;;5.23;4.73;;;;;;;11.12;100.00;154214.19;5045814;28;20481;-77
2023/05/13 01:02:25;;;;;;;5.03;4.40;;;;;;;11.12;100.00;154214.19;5046084;28;20460;-77
2023/05/13 01:04:59;;;;;;;5.63;4.63;;;;;;;11.10;100.00;154208.97;5028379;28;20478;-76
2023/05/13 01:07:42;;;;;;;5.37;4.80;;;;;;;11.06;100.00;154198.63;5037599;28;20482;-77
2023/05/13 01:10:12;;;;;;;5.57;5.07;;;;;;;11.04;100.00;154193.47;5034540;28;20617;-76
2023/05/13 01:12:41;;;;;;;5.10;4.47;;;;;;;11.02;100.00;154190.84;5057528;28;20799;-76
2023/05/13 01:15:10;;;;;;;6.20;4.93;;;;;;;10.98;100.00;154180.53;5047977;28;20787;-76
2023/05/13 01:17:41;;;;;;;6.63;4.53;;;;;;;10.96;100.00;154174.06;5060989;28;20463;-77
2023/05/13 01:20:08;;;;;;;5.10;4.60;;;;;;;10.93;100.00;154167.53;5045894;28;20452;-76
2023/05/13 01:22:46;;;;;;;5.37;4.37;;;;;;;10.93;100.00;154167.53;5049051;28;20879;-76
2023/05/13 01:25:13;;;;;;;5.70;4.77;;;;;;;10.90;100.00;154159.78;5037359;28;20571;-76
2023/05/13 01:27:40;;;;;;;5.00;4.60;;;;;;;10.84;100.00;154144.25;5030043;28;20448;-76
2023/05/13 01:30:09;;;;;;;5.60;5.00;;;;;;;10.83;100.00;154141.63;5039192;28;20444;-76
2023/05/13 01:32:36;;;;;;;5.33;4.83;;;;;;;10.82;100.00;154139.06;5026881;28;20491;-76
2023/05/13 01:35:03;;;;;;;5.83;4.93;;;;;;;10.75;100.00;154120.91;5046874;28;20454;-76
2023/05/13 01:37:30;;;;;;;5.77;4.57;;;;;;;10.74;100.00;154118.34;5027105;28;20466;-76
2023/05/13 01:39:58;;;;;;;5.00;4.60;;;;;;;10.70;100.00;154107.97;5043395;28;20876;-77
2023/05/13 01:42:25;;;;;;;6.17;5.23;;;;;;;10.72;100.00;154113.13;5046193;28;20540;-77
2023/05/13 01:44:53;;;;;;;5.10;4.60;;;;;;;10.65;100.00;154093.72;5026168;28;20470;-76
2023/05/13 01:47:20;;;;;;;5.77;4.37;;;;;;;10.64;100.00;154092.47;5025793;28;20456;-76
2023/05/13 01:49:48;;;;;;;6.13;4.83;;;;;;;10.59;100.00;154079.47;5047349;28;20983;-77
2023/05/13 01:52:14;;;;;;;4.57;4.10;;;;;;;10.59;100.00;154079.47;5024816;28;20481;-77
2023/05/13 01:54:41;;;;;;;5.23;4.73;;;;;;;10.55;100.00;154067.84;5040687;28;20466;-76
2023/05/13 01:57:13;;;;;;;5.30;4.73;;;;;;;10.50;100.00;154054.88;5019594;28;20958;-76
2023/05/13 01:59:40;;;;;;;4.97;4.20;;;;;;;10.44;100.00;154039.34;5026647;28;20450;-77
2023/05/13 02:02:06;;;;;;;7.87;5.70;;;;;;;10.38;100.00;154025.09;5024090;28;20557;-77
2023/05/13 02:04:33;;;;;;;5.30;4.60;;;;;;;10.32;100.00;154010.91;5025882;28;20463;-76
2023/05/13 02:07:00;;;;;;;5.07;4.37;;;;;;;10.29;100.00;154001.81;5030399;28;20486;-77
2023/05/13 02:09:29;;;;;;;7.40;5.23;;;;;;;10.30;100.00;154005.69;5017714;28;20502;-77
2023/05/13 02:11:57;;;;;;;6.43;5.07;;;;;;;10.27;100.00;153996.66;5047932;28;20460;-77
2023/05/13 02:14:25;;;;;;;5.40;4.87;;;;;;;10.27;100.00;153996.66;5054607;28;20471;-77
2023/05/13 02:16:51;;;;;;;6.90;5.07;;;;;;;10.25;100.00;153991.44;5047839;28;20493;-77
2023/05/13 02:19:18;;;;;;;5.23;4.70;;;;;;;10.22;100.00;153984.97;5063565;28;20459;-77
2023/05/13 02:21:45;;;;;;;7.27;5.30;;;;;;;10.21;100.00;153981.09;5026397;28;20537;-77
2023/05/13 02:24:12;;;;;;;6.10;5.10;;;;;;;10.28;100.00;153999.22;5030003;28;20469;-77
2023/05/13 02:26:40;;;;;;;4.60;4.20;;;;;;;10.28;100.00;154000.50;5065431;28;20469;-77
2023/05/13 02:29:06;;;;;;;5.53;5.03;;;;;;;10.36;100.00;154019.94;5050343;28;20453;-76
2023/05/13 02:31:35;;;;;;;5.10;4.20;;;;;;;10.40;100.00;154030.31;5032460;28;20499;-77
2023/05/13 02:34:02;;;;;;;5.23;4.27;;;;;;;10.35;100.00;154017.38;5032518;28;20575;-77
2023/05/13 02:36:29;;;;;;;5.23;3.97;;;;;;;10.38;100.00;154025.09;5043481;28;20437;-77
2023/05/13 02:38:56;;;;;;;4.80;3.97;;;;;;;10.42;100.00;154035.47;5064687;28;20469;-77
2023/05/13 02:41:23;;;;;;;5.07;4.10;;;;;;;10.44;100.00;154040.63;5048677;28;20566;-77
2023/05/13 02:43:50;;;;;;;5.10;4.40;;;;;;;10.43;100.00;154036.78;5032645;28;20476;-76
2023/05/13 02:46:16;;;;;;;4.97;4.03;;;;;;;10.40;100.00;154030.31;5030350;28;20564;-77
2023/05/13 02:48:46;;;;;;;4.73;4.33;;;;;;;10.42;100.00;154034.16;5027999;28;20486;-77
2023/05/13 02:51:12;;;;;;;4.60;4.17;;;;;;;10.43;100.00;154038.09;5042557;28;20445;-77
2023/05/13 02:53:39;;;;;;;4.80;4.30;;;;;;;10.34;100.00;154016.06;5030161;28;20468;-76
2023/05/13 02:56:07;;;;;;;5.03;4.53;;;;;;;10.28;100.00;153999.22;5040613;28;20438;-77
2023/05/13 02:58:36;;;;;;;6.50;4.50;;;;;;;10.24;100.00;153988.88;5031326;28;20468;-77
2023/05/13 03:01:02;;;;;;;5.47;4.83;;;;;;;10.19;100.00;153975.94;5032004;28;20468;-77
2023/05/13 03:03:29;;;;;;;5.70;4.60;;;;;;;10.19;100.00;153975.94;5061349;28;20958;-77
2023/05/13 03:05:57;;;;;;;5.63;4.70;;;;;;;10.21;100.00;153982.41;5056933;28;20562;-76
2023/05/13 03:08:24;;;;;;;5.27;4.73;;;;;;;10.19;100.00;153977.19;5045250;28;20460;-76
2023/05/13 03:10:51;;;;;;;4.63;4.17;;;;;;;10.18;100.00;153973.34;5061744;28;20452;-77
2023/05/13 03:13:17;;;;;;;5.03;4.60;;;;;;;10.14;100.00;153963.00;5040064;28;20464;-77
2023/05/13 03:15:44;;;;;;;5.00;4.50;;;;;;;10.17;100.00;153970.72;5028963;28;20452;-77
2023/05/13 03:18:10;;;;;;;4.80;4.27;;;;;;;10.11;100.00;153955.19;5042856;28;20563;-76
2023/05/13 03:20:37;;;;;;;5.30;4.80;;;;;;;10.10;100.00;153953.88;5050734;28;20548;-77
2023/05/13 03:23:05;;;;;;;4.93;4.33;;;;;;;10.11;100.00;153956.44;5033737;28;20632;-76
2023/05/13 03:25:33;;;;;;;5.00;4.37;;;;;;;10.08;100.00;153947.41;5028928;28;20527;-77
2023/05/13 03:28:00;;;;;;;4.43;4.03;;;;;;;10.05;100.00;153940.94;5041956;28;20468;-76
2023/05/13 03:30:30;;;;;;;4.40;3.97;;;;;;;10.04;100.00;153937.03;5032954;28;20483;-76
2023/05/13 03:33:03;;;;;;;4.93;4.37;;;;;;;10.02;100.00;153931.88;5041875;28;20879;-76
2023/05/13 03:35:30;;;;;;;4.80;4.23;;;;;;;10.02;100.00;153931.88;5022293;28;20533;-76
2023/05/13 03:37:57;;;;;;;4.70;4.30;;;;;;;10.00;100.00;153928.00;5043962;28;20812;-76
2023/05/13 03:40:25;;;;;;;4.93;3.97;;;;;;;9.95;100.00;153915.06;5019109;28;20551;-76
2023/05/13 03:42:52;;;;;;;4.87;4.20;;;;;;;9.96;100.00;153916.31;5045978;28;20494;-76
2023/05/13 03:45:21;;;;;;;7.30;4.27;;;;;;;9.94;100.00;153911.16;5045310;28;20510;-76
2023/05/13 03:47:52;;;;;;;5.13;4.63;;;;;;;9.90;100.00;153900.81;5058001;28;20470;-76
2023/05/13 03:50:21;;;;;;;4.70;4.00;;;;;;;9.91;100.00;153903.38;5024086;28;20500;-77
2023/05/13 03:52:51;;;;;;;7.33;4.40;;;;;;;9.93;100.00;153908.59;5041286;28;20461;-77
2023/05/13 03:55:19;;;;;;;4.70;4.30;;;;;;;9.90;100.00;153902.06;5049784;28;20472;-76
2023/05/13 03:57:50;;;;;;;5.73;4.50;;;;;;;9.88;100.00;153896.91;5047779;28;20453;-76
2023/05/13 04:00:19;;;;;;;4.57;4.17;;;;;;;9.87;100.00;153893.06;5047380;28;20531;-76
2023/05/13 04:02:47;;;;;;;6.17;4.13;;;;;;;9.87;100.00;153893.06;5032343;28;20450;-76
2023/05/13 04:05:21;;;;;;;4.13;3.73;;;;;;;9.87;100.00;153893.06;5045876;28;20459;-76
2023/05/13 04:07:47;;;;;;;4.63;3.70;;;;;;;9.86;100.00;153891.75;5049487;28;20524;-76
2023/05/13 04:10:17;;;;;;;4.60;4.20;;;;;;;9.85;100.00;153889.16;5031446;28;20503;-76
2023/05/13 04:12:44;;;;;;;4.60;4.20;;;;;;;9.85;100.00;153887.88;5109008;22;20471;-82
2023/05/13 04:15:14;;;;;;;5.30;4.70;;;;;;;9.89;100.00;153898.22;5041226;28;20465;-82
2023/05/13 04:17:44;;;;;;;5.23;4.40;;;;;;;9.91;100.00;153904.69;5045237;28;20448;-82
2023/05/13 04:20:14;;;;;;;5.83;4.40;;;;;;;9.89;100.00;153898.22;5044488;28;20444;-82
2023/05/13 04:22:44;;;;;;;4.60;4.20;;;;;;;9.86;100.00;153890.44;5052798;28;20452;-82
2023/05/13 04:25:10;;;;;;;5.07;4.50;;;;;;;9.84;100.00;153886.59;5041294;28;20886;-82
2023/05/13 04:27:37;;;;;;;5.70;4.67;;;;;;;9.86;100.00;153890.44;5051294;28;20489;-82
2023/05/13 04:30:16;;;;;;;7.27;3.93;;;;;;;9.86;100.00;153890.44;5029150;28;20447;-82
2023/05/13 04:32:45;;;;;;;4.53;4.13;;;;;;;9.82;100.00;153882.69;5045880;28;20892;-82
2023/05/13 04:35:13;;;;;;;5.80;4.47;;;;;;;9.79;100.00;153874.91;5044250;28;21039;-82
2023/05/13 04:37:41;;;;;;;5.30;4.70;;;;;;;9.79;100.00;153874.91;5031241;28;20452;-82
2023/05/13 04:40:12;;;;;;;5.30;4.67;;;;;;;9.74;100.00;153860.72;5038226;28;20451;-82
2023/05/13 04:42:39;;;;;;;4.87;4.30;;;;;;;9.77;100.00;153869.75;5041124;28;20541;-82
2023/05/13 04:45:06;;;;;;;4.57;4.03;;;;;;;9.82;100.00;153880.13;5039539;28;20997;-82
2023/05/13 04:47:36;;;;;;;5.20;4.30;;;;;;;9.79;100.00;153874.91;5040860;28;20472;-82
2023/05/13 04:50:03;;;;;;;5.00;4.07;;;;;;;9.77;100.00;153869.75;5029111;28;20467;-83
2023/05/13 04:52:31;;;;;;;5.20;4.70;;;;;;;9.75;100.00;153864.56;5045084;28;20470;-83
2023/05/13 04:54:57;;;;;;;4.50;4.10;;;;;;;9.77;100.00;153868.44;5039426;28;20540;-83
2023/05/13 04:57:24;;;;;;;4.90;4.40;;;;;;;9.82;100.00;153882.69;5043449;28;20464;-83
2023/05/13 04:59:51;;;;;;;4.47;4.00;;;;;;;9.82;100.00;153881.41;5041925;28;20852;-82
2023/05/13 05:02:18;;;;;;;5.57;4.83;;;;;;;9.82;100.00;153880.13;5028481;28;20461;-82
2023/05/13 05:04:48;;;;;;;4.40;4.00;;;;;;;9.86;100.00;153891.75;5030020;28;20501;-82
2023/05/13 05:07:14;;;;;;;5.20;4.00;;;;;;;9.84;100.00;153885.28;5029923;28;20471;-82
2023/05/13 05:09:41;;;;;;;5.20;4.70;;;;;;;9.82;100.00;153882.69;5028652;28;20460;-82
2023/05/13 05:12:08;;;;;;;5.17;4.70;;;;;;;9.80;100.00;153876.22;5039819;28;20525;-82
2023/05/13 05:14:37;;;;;;;6.17;4.43;;;;;;;9.77;100.00;153869.75;5023193;28;20487;-82
2023/05/13 05:17:05;;;;;;;4.97;4.37;;;;;;;9.78;100.00;153872.34;5026352;28;20449;-82
2023/05/13 05:19:32;;;;;;;5.30;4.80;;;;;;;9.79;100.00;153873.66;5025868;28;20564;-82
2023/05/13 05:21:59;;;;;;;5.43;4.60;;;;;;;9.78;100.00;153871.03;5060404;28;20458;-82
2023/05/13 05:24:26;;;;;;;6.27;4.60;;;;;;;9.80;100.00;153877.50;5041658;28;20459;-82
2023/05/13 05:26:53;;;;;;;5.60;5.00;;;;;;;9.79;100.00;153874.91;5027972;28;20471;-82
2023/05/13 05:29:19;;;;;;;5.40;4.90;;;;;;;9.77;100.00;153869.75;5031169;28;20459;-82
2023/05/13 05:31:46;;;;;;;5.50;4.63;;;;;;;9.79;100.00;153873.66;5045306;28;20461;-82
2023/05/13 05:34:13;;;;;;;5.07;4.60;;;;;;;9.81;100.00;153878.81;5046636;28;20446;-82
2023/05/13 05:36:40;;;;;;;4.70;4.30;;;;;;;9.85;100.00;153889.16;5046466;28;20542;-82
2023/05/13 05:39:08;;;;;;;4.87;4.37;;;;;;;9.88;100.00;153895.59;5046558;28;20459;-82
2023/05/13 05:41:36;;;;;;;6.63;5.07;;;;;;;9.88;100.00;153895.59;5056959;28;20529;-82
2023/05/13 05:44:02;;;;;;;5.43;4.93;;;;;;;9.85;100.00;153887.88;5027423;28;20453;-82
2023/05/13 05:46:30;;;;;;;6.13;5.00;;;;;;;9.88;100.00;153895.59;5043034;28;20480;-82
2023/05/13 05:48:58;;;;;;;5.07;4.57;;;;;;;9.89;100.00;153898.22;5024534;28;20869;-82
2023/05/13 05:51:24;;;;;;;5.00;4.50;;;;;;;9.91;100.00;153904.69;5052150;28;20470;-82
2023/05/13 05:53:51;;;;;;;5.23;4.73;;;;;;;9.91;100.00;153904.69;5042134;28;20557;-81
2023/05/13 05:56:20;;;;;;;6.33;4.50;;;;;;;9.95;100.00;153915.06;5029042;28;20447;-81
2023/05/13 05:58:47;;;;;;;8.60;5.50;;;;;;;9.97;100.00;153920.22;5060976;28;20845;-81
2023/05/13 06:01:13;;;;;;;5.00;4.50;;;;;;;9.90;100.00;153902.06;5040782;28;20537;-81
2023/05/13 06:03:40;;;;;;;5.60;5.10;;;;;;;9.95;100.00;153913.75;5030283;28;20479;-81
2023/05/13 06:06:07;;;;;;;5.63;5.07;;;;;;;9.95;100.00;153913.75;5045206;28;20960;-82
2023/05/13 06:08:34;;;;;;;4.90;4.40;;;;;;;9.96;100.00;153916.31;5028181;28;20465;-82
2023/05/13 06:11:00;;;;;;;5.63;5.13;;;;;;;9.95;100.00;153913.75;5045609;28;20450;-81
2023/05/13 06:13:28;;;;;;;5.87;4.87;;;;;;;9.94;100.00;153911.16;5038987;28;20495;-80
2023/05/13 06:15:55;;;;;;;7.00;4.90;;;;;;;9.91;100.00;153903.38;5029050;28;20439;-81
2023/05/13 06:18:21;;;;;;;5.00;4.50;;;;;;;9.95;100.00;153913.75;5048119;28;20456;-82
2023/05/13 06:20:48;;;;;;;6.80;5.20;;;;;;;9.94;100.00;153911.16;5046169;28;20514;-82
2023/05/13 06:23:15;;;;;;;5.30;4.80;;;;;;;9.97;100.00;153918.91;5043547;28;20459;-81
2023/05/13 06:25:42;;;;;;;7.60;5.50;;;;;;;9.97;100.00;153918.91;5045689;28;20454;-82
2023/05/13 06:28:10;;;;;;;7.30;5.40;;;;;;;9.98;100.00;153921.53;5026758;28;20487;-82
2023/05/13 06:30:38;;;;;;;5.63;5.10;;;;;;;9.99;100.00;153925.38;5038487;28;20461;-82
2023/05/13 06:33:07;;;;;;;4.80;4.30;;;;;;;10.00;100.00;153926.69;5043127;28;20463;-82
2023/05/13 06:35:33;;;;;;;6.03;5.50;;;;;;;10.04;100.00;153937.03;5045672;28;20451;-82
2023/05/13 06:38:03;;;;;;;6.63;4.90;;;;;;;10.07;100.00;153944.81;5032924;28;20487;-83
2023/05/13 06:40:29;;;;;;;5.13;4.33;;;;;;;10.14;100.00;153963.00;5028890;28;20467;-82
2023/05/13 06:42:56;;;;;;;5.60;4.90;;;;;;;10.17;100.00;153970.72;5039926;28;20472;-82
2023/05/13 06:45:29;;;;;;;5.77;5.17;;;;;;;10.28;100.00;154000.50;5047700;28;20445;-82
2023/05/13 06:47:57;;;;;;;5.40;4.90;;;;;;;10.32;100.00;154009.59;5025626;28;20484;-83
2023/05/13 06:50:23;;;;;;;5.53;4.97;;;;;;;10.31;100.00;154007.00;5029752;28;20444;-82
2023/05/13 06:52:50;;;;;;;5.53;5.03;;;;;;;10.36;100.00;154019.94;5046120;28;20449;-82
2023/05/13 06:55:17;;;;;;;5.10;4.60;;;;;;;10.36;100.00;154019.94;5045723;28;20983;-83
2023/05/13 06:57:45;;;;;;;5.40;4.90;;;;;;;10.43;100.00;154036.78;5049427;28;20443;-82
2023/05/13 07:00:13;;;;;;;8.03;5.73;;;;;;;10.48;100.00;154051.03;5060324;28;20865;-82
2023/05/13 07:02:39;;;;;;;5.50;5.03;;;;;;;10.55;100.00;154067.84;5047860;28;20447;-82
2023/05/13 07:05:08;;;;;;;5.23;4.63;;;;;;;10.59;100.00;154079.47;5051538;28;20443;-82
2023/05/13 07:07:35;;;;;;;5.07;4.57;;;;;;;10.59;100.00;154079.47;5047852;28;20470;-82
2023/05/13 07:10:01;;;;;;;5.00;4.60;;;;;;;10.63;100.00;154089.84;5051622;28;20513;-82
2023/05/13 07:12:28;;;;;;;5.63;5.00;;;;;;;10.60;100.00;154082.06;5042839;28;20469;-83
2023/05/13 07:14:54;;;;;;;5.07;4.50;;;;;;;10.59;100.00;154079.47;5062501;28;20517;-82
2023/05/13 07:17:21;;;;;;;5.90;5.30;;;;;;;10.67;100.00;154100.19;5049224;28;20445;-82
2023/05/13 07:19:47;;;;;;;5.80;5.20;;;;;;;10.70;100.00;154106.66;5031485;28;20463;-82
2023/05/13 07:22:15;;;;;;;7.00;5.37;;;;;;;10.66;100.00;154097.63;5048620;28;20522;-82
2023/05/13 07:24:42;;;;;;;6.83;5.80;;;;;;;10.64;100.00;154092.47;5065745;28;20509;-82
2023/05/13 07:27:09;;;;;;;6.60;5.63;;;;;;;10.63;100.00;154089.84;5047475;28;20886;-82
2023/05/13 07:29:35;;;;;;;6.63;5.67;;;;;;;10.60;100.00;154082.06;5046850;28;20498;-81
2023/05/13 07:32:04;;;;;;;6.40;5.67;;;;;;;10.63;100.00;154089.84;5059688;28;20983;-82
2023/05/13 07:34:31;;;;;;;5.40;4.83;;;;;;;10.67;100.00;154098.94;5059761;28;21006;-82
2023/05/13 07:36:58;;;;;;;6.03;5.43;;;;;;;10.76;100.00;154123.53;5047630;28;20479;-82
2023/05/13 07:39:26;;;;;;;6.53;5.70;;;;;;;10.79;100.00;154131.28;5049087;28;20500;-81
2023/05/13 07:41:53;;;;;;;6.33;5.73;;;;;;;10.85;100.00;154145.53;5039029;28;21050;-82
2023/05/13 07:44:19;;;;;;;9.00;6.13;;;;;;;10.87;100.00;154152.03;5046364;28;20484;-82
2023/05/13 07:46:46;;;;;;;6.70;5.90;;;;;;;10.95;100.00;154172.75;5048386;28;20551;-81
2023/05/13 07:49:12;;;;;;;6.40;5.80;;;;;;;10.97;100.00;154177.91;5046695;28;20453;-81
2023/05/13 07:51:39;;;;;;;7.70;6.00;;;;;;;10.95;100.00;154172.75;5050681;28;20806;-82
2023/05/13 07:54:05;;;;;;;5.17;4.67;;;;;;;11.04;100.00;154193.47;5045542;28;20456;-83
2023/05/13 07:56:33;;;;;;;6.80;5.50;;;;;;;11.11;100.00;154211.59;5046571;28;20446;-82
2023/05/13 07:59:00;;;;;;;6.03;5.43;;;;;;;11.02;100.00;154190.84;5049006;28;20454;-82
2023/05/13 08:01:27;;;;;;;6.30;5.47;;;;;;;11.06;100.00;154198.63;5024690;28;20465;-82
2023/05/13 08:03:53;;;;;;;7.33;5.47;;;;;;;11.18;100.00;154231.00;5046993;28;20458;-82
2023/05/13 08:06:20;;;;;;;6.40;5.50;;;;;;;11.27;100.00;154253.03;5041752;28;20457;-82
2023/05/13 08:08:46;;;;;;;7.17;6.47;;;;;;;11.31;100.00;154264.69;5042446;28;20829;-82
2023/05/13 08:11:13;;;;;;;6.20;5.60;;;;;;;11.31;100.00;154264.69;5038894;28;20981;-82
2023/05/13 08:13:41;;;;;;;6.27;5.70;;;;;;;11.27;100.00;154253.03;5055042;28;20486;-82
2023/05/13 08:16:07;;;;;;;7.33;5.83;;;;;;;11.25;100.00;154247.88;5048351;28;20473;-82
2023/05/13 08:18:34;;;;;;;8.33;6.17;;;;;;;11.23;100.00;154243.97;5057999;28;20461;-82
2023/05/13 08:21:00;;;;;;;6.30;5.70;;;;;;;11.24;100.00;154245.25;5031832;28;20470;-82
2023/05/13 08:23:27;;;;;;;5.83;5.30;;;;;;;11.22;100.00;154241.41;5061084;28;20456;-82
2023/05/13 08:25:54;;;;;;;6.20;5.57;;;;;;;11.20;100.00;154234.94;5046729;28;20441;-82
2023/05/13 08:28:25;;;;;;;7.00;5.80;;;;;;;11.19;100.00;154232.31;5046163;28;20513;-82
2023/05/13 08:31:01;;;;;;;6.27;5.67;;;;;;;11.15;100.00;154223.22;5044384;28;20988;-83
2023/05/13 08:33:28;;;;;;;5.97;5.37;;;;;;;11.15;100.00;154223.22;5046493;28;20480;-83
2023/05/13 08:35:55;;;;;;;7.10;6.20;;;;;;;11.15;100.00;154221.94;5043626;28;20456;-83
2023/05/13 08:38:21;;;;;;;6.20;5.60;;;;;;;11.14;100.00;154219.38;5046253;28;21154;-82
2023/05/13 08:40:48;;;;;;;6.07;5.47;;;;;;;11.11;100.00;154212.88;5045274;28;20476;-83
2023/05/13 08:43:16;;;;;;;6.07;5.50;;;;;;;11.11;100.00;154211.59;5047576;28;20460;-82
2023/05/13 08:45:46;;;;;;;6.87;5.60;;;;;;;11.13;100.00;154216.75;5047290;28;20457;-83
2023/05/13 08:48:15;;;;;;;8.63;6.37;;;;;;;11.17;100.00;154227.16;5040562;28;20547;-76
2023/05/13 08:50:42;;;;;;;7.20;6.10;;;;;;;11.17;100.00;154227.16;5040498;28;20470;-76
2023/05/13 08:53:11;;;;;;;6.33;5.73;;;;;;;11.19;100.00;154232.31;5044803;28;20465;-76
2023/05/13 08:55:44;;;;;;;7.33;5.73;;;;;;;11.15;100.00;154221.94;5042163;28;20879;-76
2023/05/13 08:58:11;;;;;;;6.53;5.70;;;;;;;11.18;100.00;154229.72;5042302;28;20469;-76
2023/05/13 09:00:41;;;;;;;6.50;5.40;;;;;;;11.15;100.00;154221.94;5044190;28;20464;-75
2023/05/13 09:03:08;;;;;;;7.10;5.60;;;;;;;11.19;100.00;154232.31;5044261;28;20507;-75
2023/05/13 09:05:36;;;;;;;6.20;5.60;;;;;;;11.21;100.00;154237.47;5045172;28;20467;-76
2023/05/13 09:08:07;;;;;;;7.97;6.37;;;;;;;11.26;100.00;154250.44;5062934;28;20473;-77
2023/05/13 09:10:34;;;;;;;6.30;5.50;;;;;;;11.29;100.00;154258.22;5056605;28;20819;-77
2023/05/13 09:13:01;;;;;;;5.80;5.17;;;;;;;11.35;100.00;154273.78;5043395;28;20499;-76
2023/05/13 09:15:28;;;;;;;5.90;5.30;;;;;;;11.40;100.00;154286.72;5043595;28;20457;-75
2023/05/13 09:17:56;;;;;;;8.40;5.50;;;;;;;11.33;100.00;154268.59;5042183;28;20458;-75
2023/05/13 09:20:25;;;;;;;8.43;5.87;;;;;;;11.30;100.00;154262.13;5045071;28;20553;-75
2023/05/13 09:22:55;;;;;;;5.70;4.77;;;;;;;11.25;100.00;154247.88;5045100;28;20469;-75
2023/05/13 09:25:23;;;;;;;5.60;5.10;;;;;;;11.28;100.00;154256.91;5037788;28;20457;-76
2023/05/13 09:28:03;;;;;;;5.73;5.03;;;;;;;11.30;100.00;154262.13;5047324;28;20473;-76
2023/05/13 09:30:32;;;;;;;6.70;5.67;;;;;;;11.35;100.00;154275.06;5057178;28;20917;-75
2023/05/13 09:33:07;;;;;;;5.30;4.80;;;;;;;11.38;100.00;154281.56;5039996;28;20451;-75
2023/05/13 09:35:35;;;;;;;6.20;5.60;;;;;;;11.33;100.00;154269.84;5040318;28;20461;-75
2023/05/13 09:38:12;;;;;;;6.33;5.50;;;;;;;11.38;100.00;154281.56;5040855;28;20515;-75
2023/05/13 09:40:39;;;;;;;6.47;5.87;;;;;;;11.40;100.00;154286.72;5030628;28;20461;-75
2023/05/13 09:43:06;;;;;;;6.53;5.20;;;;;;;11.46;100.00;154302.28;5042357;28;20460;-76
2023/05/13 09:45:32;;;;;;;6.97;5.40;;;;;;;11.46;100.00;154302.28;5050752;28;20830;-76
2023/05/13 09:47:59;;;;;;;5.77;5.17;;;;;;;11.50;100.00;154312.63;5056716;28;20478;-76
2023/05/13 09:50:26;;;;;;;6.33;5.73;;;;;;;11.50;100.00;154312.63;5047157;28;20493;-76
2023/05/13 09:52:52;;;;;;;6.97;6.00;;;;;;;11.49;100.00;154310.06;5045719;28;20472;-76
2023/05/13 09:55:22;;;;;;;5.83;5.23;;;;;;;11.51;100.00;154316.53;5046984;28;20950;-76
2023/05/13 09:57:49;;;;;;;7.07;5.57;;;;;;;11.49;100.00;154311.31;5045075;28;20435;-76
2023/05/13 10:00:16;;;;;;;5.90;5.30;;;;;;;11.55;100.00;154326.88;5041544;28;20470;-76
2023/05/13 10:02:42;;;;;;;6.60;5.47;;;;;;;11.67;100.00;154356.72;5043869;28;20501;-77
2023/05/13 10:05:09;;;;;;;6.13;5.20;;;;;;;11.86;100.00;154405.97;5046315;28;20471;-77
2023/05/13 10:07:37;;;;;;;6.10;5.60;;;;;;;12.06;100.00;154457.84;5049778;28;20836;-77
2023/05/13 10:10:06;;;;;;;6.00;5.40;;;;;;;12.18;100.00;154488.94;5041330;28;21286;-77
2023/05/13 10:12:36;;;;;;;4.30;4.00;;;;;;;12.23;100.00;154499.34;5024573;28;20447;-77
2023/05/13 10:15:02;;;;;;;6.03;5.20;;;;;;;12.29;98.55;154514.84;5043873;28;20482;-75
2023/05/13 10:17:29;;;;;;;5.40;4.90;;;;;;;12.25;98.61;154504.50;5052514;28;20447;-76
2023/05/13 10:19:56;;;;;;;4.97;4.37;;;;;;;12.22;99.61;154498.03;5054557;28;20457;-76
2023/05/13 10:22:28;;;;;;;5.70;5.20;;;;;;;12.32;98.62;154522.66;5046886;28;20991;-77
2023/05/13 10:24:56;;;;;;;4.63;4.23;;;;;;;12.40;98.24;154543.41;5053350;28;20488;-76
2023/05/13 10:27:27;;;;;;;4.93;3.83;;;;;;;12.44;97.90;154553.78;5046734;28;20497;-77
2023/05/13 10:29:56;;;;;;;5.17;4.30;;;;;;;12.48;96.86;154564.16;5047967;28;20459;-76
2023/05/13 10:32:24;;;;;;;3.87;3.47;;;;;;;12.61;95.47;154599.16;5048454;28;20440;-77
2023/05/13 10:34:52;;;;;;;3.90;3.60;;;;;;;12.67;94.91;154613.44;5049154;28;20843;-76
2023/05/13 10:37:34;;;;;;;3.40;2.70;;;;;;;12.74;94.65;154632.88;5048946;28;20462;-76
2023/05/13 10:40:15;;;;;;;3.63;3.00;;;;;;;12.85;93.96;154660.13;5031562;28;20451;-76
2023/05/13 10:42:43;;;;;;;4.40;3.20;;;;;;;12.87;92.79;154664.03;5044977;28;20504;-76
2023/05/13 10:45:11;;;;;;;3.53;3.23;;;;;;;12.83;92.08;154656.25;5051139;28;20828;-76
2023/05/13 10:47:38;;;;;;;3.20;2.80;;;;;;;12.91;93.59;154675.69;5047611;28;20545;-76
2023/05/13 10:50:06;;;;;;;3.80;3.37;;;;;;;12.97;92.98;154691.28;5046620;28;20482;-77
2023/05/13 10:52:43;;;;;;;4.13;3.73;;;;;;;13.02;92.18;154704.25;5044525;28;20455;-76
2023/05/13 10:55:16;;;;;;;5.13;3.27;;;;;;;13.03;92.20;154706.81;5044624;28;20470;-76
2023/05/13 10:57:42;;;;;;;3.10;2.80;;;;;;;12.98;92.30;154693.84;5051032;28;20985;-76
2023/05/13 11:00:14;;;;;;;4.00;3.60;;;;;;;12.97;93.08;154691.28;5048490;28;20484;-77
2023/05/13 11:02:40;;;;;;;4.70;3.67;;;;;;;12.94;93.65;154683.50;5045897;28;20904;-76
2023/05/13 11:05:08;;;;;;;6.20;4.23;;;;;;;12.91;93.81;154675.69;5049726;28;20486;-76
2023/05/13 11:07:38;;;;;;;4.87;4.30;;;;;;;12.90;94.34;154671.78;5029391;28;21021;-76
2023/05/13 11:10:06;;;;;;;5.27;4.77;;;;;;;12.76;96.11;154636.81;5039757;28;20476;-77
2023/05/13 11:12:33;;;;;;;5.40;4.90;;;;;;;12.68;96.54;154616.03;5047898;28;20458;-76
2023/05/13 11:15:00;;;;;;;6.93;6.23;;;;;;;12.63;97.01;154603.03;5049088;28;20485;-76
2023/05/13 11:17:32;;;;;;;5.73;5.23;;;;;;;12.67;98.42;154613.44;5048821;28;20807;-77
2023/05/13 11:19:59;;;;;;;6.67;5.97;;;;;;;12.66;98.34;154610.81;5045544;28;20463;-76
2023/05/13 11:22:26;;;;;;;6.17;5.57;;;;;;;12.57;98.43;154587.50;5049281;28;20809;-76